Time;durP1;ratioP1;P1;durP2;ratioP2;P2;SDS_P1;SDS_P2;PMS_P1;PMS_P2;Temp;Humidity;BMP_temperature;BMP_pressure;BME280_temperature;BME280_humidity;BME280_pressure;Samples;Min_cycle;Max_cycle;Signal;HPM_P1;HPM_P2
2022/09/01 00:01:41;;;;;;;2.95;1.70;;;;;;;;;;4967522;28;20485;-88
2022/09/01 00:04:10;;;;;;;1.92;1.73;;;;;;;;;;4963663;28;20104;-88
2022/09/01 00:06:39;;;;;;;7.53;2.10;;;;;;;;;;4959745;28;20026;-88
2022/09/01 00:09:07;;;;;;;3.35;2.00;;;;;;;;;;4960644;28;20122;-88
2022/09/01 00:11:34;;;;;;;4.95;1.88;;;;;;;;;;4962572;28;20038;-88
2022/09/01 00:14:01;;;;;;;1.75;1.50;;;;;;;;;;4948620;28;20080;-88
2022/09/01 00:16:27;;;;;;;5.93;1.80;;;;;;;;;;4978866;28;20034;-89
2022/09/01 00:18:54;;;;;;;3.65;1.85;;;;;;;;;;4967717;28;20487;-88
2022/09/01 00:21:25;;;;;;;2.38;1.48;;;;;;;;;;4958286;28;20027;-88
2022/09/01 00:23:51;;;;;;;2.15;1.75;;;;;;;;;;4963547;28;20036;-88
2022/09/01 00:26:20;;;;;;;3.83;1.95;;;;;;;;;;4961960;28;20034;-88
2022/09/01 00:28:46;;;;;;;7.78;2.28;;;;;;;;;;4966846;28;20409;-88
2022/09/01 00:31:17;;;;;;;3.13;1.58;;;;;;;;;;4976494;28;20031;-89
2022/09/01 00:33:43;;;;;;;2.10;1.90;;;;;;;;;;4977465;28;20035;-87
2022/09/01 00:36:09;;;;;;;2.15;1.60;;;;;;;;;;4978123;28;20077;-87
2022/09/01 00:38:36;;;;;;;3.38;1.63;;;;;;;;;;4981065;28;20041;-87
2022/09/01 00:41:02;;;;;;;4.70;1.60;;;;;;;;;;4969322;28;20609;-87
2022/09/01 00:43:37;;;;;;;2.20;1.70;;;;;;;;;;4982149;28;20128;-88
2022/09/01 00:46:07;;;;;;;2.50;1.43;;;;;;;;;;4966080;28;20120;-88
2022/09/01 00:48:33;;;;;;;2.80;1.65;;;;;;;;;;4982533;28;20297;-88
2022/09/01 00:51:00;;;;;;;3.08;1.73;;;;;;;;;;4964311;28;20565;-88
2022/09/01 00:53:26;;;;;;;2.92;1.70;;;;;;;;;;4976921;28;20038;-88
2022/09/01 00:55:52;;;;;;;5.47;1.95;;;;;;;;;;4948596;28;20034;-87
2022/09/01 00:58:18;;;;;;;2.35;1.90;;;;;;;;;;4968269;28;20435;-88
2022/09/01 01:00:46;;;;;;;1.77;1.55;;;;;;;;;;4965757;28;20038;-88
2022/09/01 01:03:13;;;;;;;5.18;1.83;;;;;;;;;;4964816;28;20501;-88
2022/09/01 01:05:47;;;;;;;2.70;1.77;;;;;;;;;;4964166;28;20049;-87
2022/09/01 01:08:18;;;;;;;6.20;1.80;;;;;;;;;;4965330;28;20417;-88
2022/09/01 01:10:44;;;;;;;2.80;1.77;;;;;;;;;;4966550;28;20033;-88
2022/09/01 01:13:12;;;;;;;2.03;1.55;;;;;;;;;;4962395;28;20038;-88
2022/09/01 01:15:42;;;;;;;2.78;1.58;;;;;;;;;;4982250;28;20026;-88
2022/09/01 01:18:09;;;;;;;4.47;1.42;;;;;;;;;;4968388;28;20057;-88
2022/09/01 01:23:20;;;;;;;4.45;1.70;;;;;;;;;;4967634;28;21799;-88
2022/09/01 01:25:47;;;;;;;2.85;1.60;;;;;;;;;;4968684;28;20038;-88
2022/09/01 01:28:27;;;;;;;2.85;1.35;;;;;;;;;;4969156;28;20185;-88
2022/09/01 01:30:56;;;;;;;3.67;1.80;;;;;;;;;;4984491;28;20038;-88
2022/09/01 01:33:24;;;;;;;2.15;1.50;;;;;;;;;;4984952;28;20126;-88
2022/09/01 01:35:56;;;;;;;3.83;1.60;;;;;;;;;;4986776;28;20088;-87
2022/09/01 01:38:23;;;;;;;1.65;1.52;;;;;;;;;;4965257;28;20054;-88
2022/09/01 01:40:50;;;;;;;2.30;1.60;;;;;;;;;;4970274;28;20022;-88
2022/09/01 01:43:20;;;;;;;1.80;1.40;;;;;;;;;;4971469;28;20038;-88
2022/09/01 01:45:51;;;;;;;4.60;1.88;;;;;;;;;;4953615;28;20061;-88
2022/09/01 01:48:21;;;;;;;2.35;1.88;;;;;;;;;;4987777;28;20091;-88
2022/09/01 01:50:52;;;;;;;1.65;1.55;;;;;;;;;;4986658;28;20070;-88
2022/09/01 01:53:18;;;;;;;3.28;1.55;;;;;;;;;;4987570;28;20170;-88
2022/09/01 01:55:44;;;;;;;1.83;1.63;;;;;;;;;;4972128;28;20037;-87
2022/09/01 01:58:11;;;;;;;2.17;1.60;;;;;;;;;;4987173;28;20034;-87
2022/09/01 02:00:37;;;;;;;2.95;1.70;;;;;;;;;;4967456;28;20053;-88
2022/09/01 02:03:06;;;;;;;6.55;2.03;;;;;;;;;;4967510;28;20027;-88
2022/09/01 02:05:34;;;;;;;6.88;1.83;;;;;;;;;;4979096;28;20678;-89
2022/09/01 02:08:03;;;;;;;5.05;1.63;;;;;;;;;;4984235;28;20026;-88
2022/09/01 02:10:39;;;;;;;3.67;1.73;;;;;;;;;;4967662;28;20034;-87
2022/09/01 02:13:06;;;;;;;;;;;;;;;;;;4962251;28;20034;-87
2022/09/01 02:15:42;;;;;;;2.60;1.60;;;;;;;;;;4970316;28;19928;-88
2022/09/01 02:18:09;;;;;;;4.47;1.73;;;;;;;;;;4971457;28;20053;-88
2022/09/01 02:20:35;;;;;;;4.47;1.70;;;;;;;;;;4968692;28;20023;-88
2022/09/01 02:23:08;;;;;;;5.07;2.20;;;;;;;;;;4964405;28;20034;-87
2022/09/01 02:25:34;;;;;;;2.47;1.98;;;;;;;;;;4967209;28;20073;-88
2022/09/01 02:28:02;;;;;;;4.72;2.25;;;;;;;;;;4968618;28;20041;-88
2022/09/01 02:30:31;;;;;;;4.50;2.00;;;;;;;;;;4964904;28;20027;-88
2022/09/01 02:32:58;;;;;;;2.47;2.05;;;;;;;;;;4951795;28;20525;-88
2022/09/01 02:35:27;;;;;;;2.55;2.00;;;;;;;;;;4986139;28;20030;-87
2022/09/01 02:37:57;;;;;;;2.92;1.88;;;;;;;;;;4965824;28;20045;-88
2022/09/01 02:40:23;;;;;;;4.78;1.90;;;;;;;;;;4964756;28;20030;-88
2022/09/01 02:42:51;;;;;;;2.63;2.22;;;;;;;;;;4970941;28;20038;-88
2022/09/01 02:45:18;;;;;;;3.33;2.20;;;;;;;;;;4954993;28;20612;-87
2022/09/01 02:47:47;;;;;;;4.15;2.17;;;;;;;;;;4971083;28;20038;-88
2022/09/01 02:50:15;;;;;;;5.35;1.95;;;;;;;;;;4966065;28;20470;-87
2022/09/01 02:52:42;;;;;;;4.32;2.08;;;;;;;;;;4969319;28;20034;-88
2022/09/01 02:55:09;;;;;;;4.97;2.10;;;;;;;;;;4969435;28;20470;-88
2022/09/01 02:57:35;;;;;;;6.93;2.50;;;;;;;;;;4969734;28;20050;-88
2022/09/01 03:00:01;;;;;;;2.67;2.15;;;;;;;;;;4967410;28;20073;-88
2022/09/01 03:02:27;;;;;;;2.30;2.03;;;;;;;;;;4981705;28;20110;-88
2022/09/01 03:05:00;;;;;;;4.32;2.25;;;;;;;;;;4954018;28;20070;-88
2022/09/01 03:07:26;;;;;;;2.33;2.10;;;;;;;;;;4965916;28;20038;-87
2022/09/01 03:09:52;;;;;;;2.83;2.13;;;;;;;;;;4970446;28;20549;-88
2022/09/01 03:12:18;;;;;;;3.78;2.33;;;;;;;;;;4969467;28;20363;-88
2022/09/01 03:14:45;;;;;;;2.17;1.98;;;;;;;;;;4968775;28;20097;-88
2022/09/01 03:17:11;;;;;;;3.97;2.72;;;;;;;;;;4968439;28;20042;-88
2022/09/01 03:19:41;;;;;;;3.80;2.13;;;;;;;;;;4966125;28;20042;-88
2022/09/01 03:22:07;;;;;;;3.58;2.38;;;;;;;;;;4948640;28;20058;-88
2022/09/01 03:24:33;;;;;;;4.60;1.90;;;;;;;;;;4984357;28;20273;-88
2022/09/01 03:26:59;;;;;;;5.40;2.20;;;;;;;;;;4952305;28;20124;-88
2022/09/01 03:29:25;;;;;;;5.70;2.42;;;;;;;;;;4953169;28;20046;-87
2022/09/01 03:31:52;;;;;;;3.20;1.95;;;;;;;;;;4950520;28;20279;-88
2022/09/01 03:34:20;;;;;;;6.28;2.45;;;;;;;;;;4966205;28;20072;-87
2022/09/01 03:36:49;;;;;;;2.97;2.15;;;;;;;;;;4966303;28;20030;-87
2022/09/01 03:39:17;;;;;;;5.47;2.10;;;;;;;;;;4964356;28;20542;-88
2022/09/01 03:41:43;;;;;;;3.25;2.20;;;;;;;;;;4959828;28;20379;-88
2022/09/01 03:44:10;;;;;;;5.95;2.10;;;;;;;;;;4971450;28;20026;-88
2022/09/01 03:46:39;;;;;;;5.63;2.05;;;;;;;;;;4985738;28;20034;-88
2022/09/01 03:49:06;;;;;;;2.15;1.95;;;;;;;;;;4950984;28;20546;-88
2022/09/01 03:51:33;;;;;;;4.50;3.25;;;;;;;;;;4964636;28;20022;-89
2022/09/01 03:53:59;;;;;;;7.72;2.72;;;;;;;;;;4968417;28;20037;-88
2022/09/01 03:56:27;;;;;;;5.10;2.17;;;;;;;;;;4951888;28;20178;-89
2022/09/01 03:59:00;;;;;;;4.68;2.20;;;;;;;;;;4983682;28;20023;-88
2022/09/01 04:01:27;;;;;;;3.38;2.20;;;;;;;;;;4971018;28;20027;-89
2022/09/01 04:03:53;;;;;;;3.15;2.00;;;;;;;;;;4967022;28;20034;-89
2022/09/01 04:06:22;;;;;;;3.28;2.10;;;;;;;;;;4952624;28;20041;-88
2022/09/01 04:09:01;;;;;;;2.70;2.13;;;;;;;;;;4962264;28;20042;-89
2022/09/01 04:11:27;;;;;;;4.22;1.98;;;;;;;;;;4964960;28;20473;-88
2022/09/01 04:13:54;;;;;;;2.72;2.38;;;;;;;;;;4964052;28;20062;-88
2022/09/01 04:19:18;;;;;;;5.38;2.28;;;;;;;;;;4979507;28;20058;-89
2022/09/01 04:21:44;;;;;;;4.75;2.00;;;;;;;;;;4966826;28;20026;-88
2022/09/01 04:24:13;;;;;;;3.50;2.17;;;;;;;;;;4973832;28;21437;-89
2022/09/01 04:26:40;;;;;;;2.33;2.13;;;;;;;;;;4976844;28;20316;-89
2022/09/01 04:29:09;;;;;;;2.88;1.95;;;;;;;;;;4963683;28;20050;-88
2022/09/01 04:31:37;;;;;;;5.03;2.70;;;;;;;;;;4964443;28;20050;-87
2022/09/01 04:34:11;;;;;;;4.63;2.33;;;;;;;;;;4964506;28;20050;-88
2022/09/01 04:36:39;;;;;;;5.28;3.05;;;;;;;;;;4963514;28;20038;-89
2022/09/01 04:39:08;;;;;;;2.58;2.38;;;;;;;;;;4964221;28;20030;-88
2022/09/01 04:41:36;;;;;;;3.22;2.10;;;;;;;;;;4966477;28;20031;-88
2022/09/01 04:44:03;;;;;;;6.32;2.63;;;;;;;;;;4962324;28;20034;-88
2022/09/01 04:46:31;;;;;;;7.60;2.42;;;;;;;;;;4979013;28;20027;-89
2022/09/01 04:48:58;;;;;;;5.10;2.90;;;;;;;;;;4963934;28;20069;-88
2022/09/01 04:51:28;;;;;;;3.47;2.25;;;;;;;;;;4977468;28;20569;-89
2022/09/01 04:53:57;;;;;;;3.67;2.40;;;;;;;;;;4967122;28;20030;-89
2022/09/01 04:56:24;;;;;;;3.88;2.38;;;;;;;;;;4982276;28;20538;-88
2022/09/01 04:58:50;;;;;;;2.90;2.17;;;;;;;;;;4969103;28;20264;-87
2022/09/01 05:01:18;;;;;;;5.05;2.75;;;;;;;;;;4950797;28;20549;-88
2022/09/01 05:03:45;;;;;;;3.33;2.45;;;;;;;;;;4982285;28;20064;-88
2022/09/01 05:06:18;;;;;;;5.72;2.65;;;;;;;;;;4947051;28;20050;-88
2022/09/01 05:08:45;;;;;;;3.28;2.13;;;;;;;;;;4969799;28;20077;-88
2022/09/01 05:11:11;;;;;;;3.72;2.47;;;;;;;;;;4969594;28;20142;-88
2022/09/01 05:13:38;;;;;;;4.45;2.65;;;;;;;;;;4970089;28;20474;-88
2022/09/01 05:16:11;;;;;;;4.35;2.60;;;;;;;;;;4956753;28;20031;-88
2022/09/01 05:18:39;;;;;;;8.95;3.10;;;;;;;;;;4965126;28;20101;-87
2022/09/01 05:21:08;;;;;;;4.72;2.65;;;;;;;;;;4978282;28;20022;-87
2022/09/01 05:23:35;;;;;;;5.97;2.33;;;;;;;;;;4968488;28;20059;-88
2022/09/01 05:26:06;;;;;;;3.40;2.47;;;;;;;;;;4965826;28;20034;-89
2022/09/01 05:28:32;;;;;;;6.93;2.70;;;;;;;;;;4952355;28;20764;-90
2022/09/01 05:31:00;;;;;;;7.15;2.97;;;;;;;;;;4951381;28;20038;-86
2022/09/01 05:33:26;;;;;;;4.85;3.17;;;;;;;;;;4984292;28;20149;-86
2022/09/01 05:35:59;;;;;;;8.23;2.53;;;;;;;;;;4940900;28;20491;-87
2022/09/01 05:38:25;;;;;;;3.78;2.80;;;;;;;;;;4978517;28;20029;-86
2022/09/01 05:40:56;;;;;;;4.68;2.17;;;;;;;;;;4965387;28;20115;-86
2022/09/01 05:43:22;;;;;;;5.20;2.20;;;;;;;;;;4977878;28;20022;-87
2022/09/01 05:45:49;;;;;;;2.33;1.88;;;;;;;;;;4963668;28;20066;-87
2022/09/01 05:48:16;;;;;;;2.05;1.83;;;;;;;;;;4949445;28;20062;-88
2022/09/01 05:50:42;;;;;;;2.83;2.22;;;;;;;;;;4963258;28;20120;-87
2022/09/01 05:53:16;;;;;;;2.50;1.90;;;;;;;;;;4977263;28;20050;-87
2022/09/01 05:55:43;;;;;;;4.68;2.20;;;;;;;;;;4962611;28;20022;-87
2022/09/01 05:58:13;;;;;;;4.05;2.25;;;;;;;;;;4967906;28;20475;-87
2022/09/01 06:00:47;;;;;;;2.70;1.98;;;;;;;;;;4965357;28;20041;-87
2022/09/01 06:03:14;;;;;;;2.88;1.98;;;;;;;;;;4979633;28;20118;-87
2022/09/01 06:05:41;;;;;;;3.08;1.90;;;;;;;;;;4945046;28;20564;-87
2022/09/01 06:08:12;;;;;;;5.88;1.90;;;;;;;;;;4961127;28;20077;-87
2022/09/01 06:10:39;;;;;;;5.95;1.92;;;;;;;;;;4962572;28;20038;-88
2022/09/01 06:13:09;;;;;;;2.30;1.88;;;;;;;;;;4954013;28;20088;-87
2022/09/01 06:15:37;;;;;;;4.00;1.70;;;;;;;;;;4965054;28;20038;-87
2022/09/01 06:18:04;;;;;;;6.38;2.03;;;;;;;;;;4965690;28;20284;-87
2022/09/01 06:20:31;;;;;;;4.97;1.80;;;;;;;;;;4942995;28;20125;-87
2022/09/01 06:22:57;;;;;;;5.32;2.10;;;;;;;;;;4946554;28;20082;-87
2022/09/01 06:25:25;;;;;;;6.50;2.05;;;;;;;;;;4933109;28;20043;-87
2022/09/01 06:27:52;;;;;;;5.60;2.13;;;;;;;;;;4949753;28;20039;-87
2022/09/01 06:30:23;;;;;;;4.05;2.28;;;;;;;;;;4959967;28;20069;-87
2022/09/01 06:32:50;;;;;;;5.10;2.70;;;;;;;;;;4944983;28;20115;-87
2022/09/01 06:35:16;;;;;;;4.45;2.00;;;;;;;;;;4936214;28;20039;-87
2022/09/01 06:37:43;;;;;;;2.13;1.92;;;;;;;;;;4943829;28;20482;-87
2022/09/01 06:40:15;;;;;;;6.95;2.78;;;;;;;;;;4949859;28;20506;-87
2022/09/01 06:42:42;;;;;;;5.15;2.20;;;;;;;;;;4964676;28;20058;-87
2022/09/01 06:45:09;;;;;;;6.70;2.00;;;;;;;;;;4945913;28;20420;-88
2022/09/01 06:47:35;;;;;;;1.63;1.52;;;;;;;;;;4936144;28;20045;-88
2022/09/01 06:50:02;;;;;;;2.47;1.90;;;;;;;;;;4930071;28;20483;-88
2022/09/01 06:52:28;;;;;;;3.78;1.92;;;;;;;;;;4962129;28;20033;-86
2022/09/01 06:54:54;;;;;;;4.70;2.20;;;;;;;;;;4943165;28;20039;-87
2022/09/01 06:57:26;;;;;;;3.60;1.92;;;;;;;;;;4935819;28;20098;-88
2022/09/01 06:59:52;;;;;;;4.13;2.05;;;;;;;;;;4948058;28;20546;-88
2022/09/01 07:02:19;;;;;;;4.07;2.05;;;;;;;;;;4959897;28;20069;-87
2022/09/01 07:04:45;;;;;;;6.47;1.95;;;;;;;;;;4929817;28;20336;-87
2022/09/01 07:07:12;;;;;;;2.30;2.03;;;;;;;;;;4940883;28;20546;-88
2022/09/01 07:09:39;;;;;;;5.20;1.80;;;;;;;;;;4950093;28;20152;-87
2022/09/01 07:12:05;;;;;;;4.50;2.55;;;;;;;;;;4944104;28;20087;-87
2022/09/01 07:14:31;;;;;;;6.40;2.10;;;;;;;;;;4932302;28;20091;-87
2022/09/01 07:16:57;;;;;;;2.85;1.90;;;;;;;;;;4939812;28;20086;-87
2022/09/01 07:19:24;;;;;;;2.72;1.88;;;;;;;;;;4939645;28;20058;-87
2022/09/01 07:21:51;;;;;;;3.42;1.55;;;;;;;;;;4952125;28;20034;-87
2022/09/01 07:24:19;;;;;;;5.78;1.88;;;;;;;;;;4961808;28;20486;-87
2022/09/01 07:26:49;;;;;;;4.85;2.00;;;;;;;;;;4964632;28;20034;-87
2022/09/01 07:29:20;;;;;;;1.80;1.70;;;;;;;;;;4959986;28;20102;-87
2022/09/01 07:31:47;;;;;;;2.50;1.80;;;;;;;;;;4947716;28;20039;-87
2022/09/01 07:34:13;;;;;;;2.20;1.70;;;;;;;;;;4978232;28;20038;-87
2022/09/01 07:36:43;;;;;;;4.40;1.92;;;;;;;;;;4964392;28;20039;-87
2022/09/01 07:39:10;;;;;;;2.55;1.77;;;;;;;;;;4978087;28;20015;-87
2022/09/01 07:41:38;;;;;;;3.88;1.92;;;;;;;;;;4946920;28;20026;-87
2022/09/01 07:44:04;;;;;;;4.80;1.85;;;;;;;;;;4955816;28;20027;-87
2022/09/01 07:46:31;;;;;;;6.70;1.80;;;;;;;;;;4962698;28;20023;-87
2022/09/01 07:48:58;;;;;;;2.88;1.52;;;;;;;;;;4960218;28;20490;-87
2022/09/01 07:51:25;;;;;;;3.22;1.35;;;;;;;;;;4954612;28;20039;-88
2022/09/01 07:53:51;;;;;;;1.60;1.50;;;;;;;;;;4956159;28;20042;-87
2022/09/01 07:56:19;;;;;;;3.72;1.65;;;;;;;;;;4954013;28;20063;-87
2022/09/01 07:58:46;;;;;;;2.38;1.40;;;;;;;;;;4965685;28;20510;-87
2022/09/01 08:01:16;;;;;;;2.80;1.40;;;;;;;;;;4942042;28;20039;-87
2022/09/01 08:03:42;;;;;;;3.63;1.30;;;;;;;;;;4962018;28;20038;-87
2022/09/01 08:06:09;;;;;;;1.73;1.30;;;;;;;;;;4962780;28;20062;-87
2022/09/01 08:08:36;;;;;;;3.92;1.67;;;;;;;;;;4955330;28;20346;-87
2022/09/01 08:11:02;;;;;;;3.58;1.63;;;;;;;;;;4969003;28;20047;-88
2022/09/01 08:13:28;;;;;;;3.50;1.63;;;;;;;;;;4961112;28;20667;-87
2022/09/01 08:16:00;;;;;;;2.28;1.60;;;;;;;;;;4941970;28;20467;-88
2022/09/01 08:18:26;;;;;;;1.42;1.30;;;;;;;;;;4959013;28;20018;-88
2022/09/01 08:20:52;;;;;;;7.97;1.70;;;;;;;;;;4950758;28;20044;-88
2022/09/01 08:23:19;;;;;;;3.83;1.50;;;;;;;;;;4963521;28;20035;-88
2022/09/01 08:25:46;;;;;;;3.70;1.40;;;;;;;;;;4975950;28;20039;-88
2022/09/01 08:28:13;;;;;;;2.85;1.67;;;;;;;;;;4962652;28;20027;-88
2022/09/01 08:30:40;;;;;;;2.85;2.33;;;;;;;;;;4980827;28;20885;-87
2022/09/01 08:33:06;;;;;;;2.15;1.55;;;;;;;;;;4983804;28;20170;-88
2022/09/01 08:35:32;;;;;;;2.25;1.80;;;;;;;;;;4969666;28;20030;-88
2022/09/01 08:37:58;;;;;;;2.90;1.45;;;;;;;;;;4953562;28;20035;-88
2022/09/01 08:40:25;;;;;;;4.50;1.70;;;;;;;;;;4964323;28;20333;-88
2022/09/01 08:43:07;;;;;;;2.05;1.60;;;;;;;;;;4967298;28;20645;-87
2022/09/01 08:45:37;;;;;;;1.75;1.50;;;;;;;;;;4964247;28;20034;-88
2022/09/01 08:48:19;;;;;;;2.25;2.10;;;;;;;;;;4968527;28;20036;-88
2022/09/01 08:50:47;;;;;;;2.65;1.50;;;;;;;;;;4968630;28;20027;-88
2022/09/01 08:53:28;;;;;;;2.53;1.50;;;;;;;;;;4961114;28;20062;-88
2022/09/01 08:55:57;;;;;;;3.03;1.40;;;;;;;;;;4967609;28;20498;-88
2022/09/01 08:58:24;;;;;;;1.58;1.48;;;;;;;;;;4961042;28;20086;-86
2022/09/01 09:01:00;;;;;;;2.22;1.60;;;;;;;;;;4939792;28;20046;-88
2022/09/01 09:03:26;;;;;;;1.58;1.48;;;;;;;;;;4966937;28;20065;-88
2022/09/01 09:06:10;;;;;;;2.63;1.48;;;;;;;;;;4986389;28;20030;-88
2022/09/01 09:09:03;;;;;;;2.88;1.58;;;;;;;;;;4966568;28;20030;-88
2022/09/01 09:11:29;;;;;;;1.48;1.30;;;;;;;;;;4978623;28;20060;-88
2022/09/01 09:13:55;;;;;;;2.72;2.03;;;;;;;;;;4979871;28;20513;-88
2022/09/01 09:16:23;;;;;;;4.13;1.90;;;;;;;;;;4976892;28;20026;-88
2022/09/01 09:18:54;;;;;;;2.30;1.40;;;;;;;;;;4969719;28;20043;-87
2022/09/01 09:21:23;;;;;;;1.63;1.52;;;;;;;;;;4966037;28;20121;-88
2022/09/01 09:23:53;;;;;;;3.53;1.83;;;;;;;;;;4980498;28;20049;-88
2022/09/01 09:26:19;;;;;;;3.05;1.48;;;;;;;;;;4954046;28;20043;-88
2022/09/01 09:28:48;;;;;;;2.80;1.38;;;;;;;;;;4935118;28;20038;-88
2022/09/01 09:31:50;;;;;;;7.05;1.40;;;;;;;;;;4967015;28;20490;-88
2022/09/01 09:34:42;;;;;;;3.00;1.30;;;;;;;;;;4953861;28;20141;-87
2022/09/01 09:37:28;;;;;;;2.78;1.35;;;;;;;;;;4964763;28;21320;-88
2022/09/01 09:40:20;;;;;;;3.17;1.08;;;;;;;;;;4980522;28;20359;-88
2022/09/01 09:42:55;;;;;;;3.90;2.00;;;;;;;;;;4977684;28;20490;-88
2022/09/01 09:45:29;;;;;;;3.25;1.50;;;;;;;;;;4963620;28;20026;-87
2022/09/01 09:47:56;;;;;;;9.05;1.38;;;;;;;;;;4968795;28;20105;-88
2022/09/01 09:50:22;;;;;;;4.13;1.40;;;;;;;;;;4963629;28;20675;-88
2022/09/01 09:52:49;;;;;;;1.98;1.17;;;;;;;;;;4983169;28;20496;-88
2022/09/01 09:55:26;;;;;;;2.22;1.13;;;;;;;;;;4962142;28;20895;-88
2022/09/01 09:58:01;;;;;;;1.98;1.48;;;;;;;;;;4961255;28;20030;-88
2022/09/01 10:00:28;;;;;;;1.00;1.00;;;;;;;;;;4963105;28;20030;-88
2022/09/01 10:03:02;;;;;;;3.75;1.08;;;;;;;;;;4960751;28;20660;-88
2022/09/01 10:05:47;;;;;;;3.67;1.65;;;;;;;;;;4964791;28;20042;-88
2022/09/01 10:08:33;;;;;;;2.90;1.58;;;;;;;;;;4965513;28;20046;-88
2022/09/01 10:10:59;;;;;;;1.52;1.20;;;;;;;;;;4985139;28;20549;-88
2022/09/01 10:13:27;;;;;;;8.82;1.55;;;;;;;;;;4980924;28;20037;-88
2022/09/01 10:15:59;;;;;;;1.38;1.02;;;;;;;;;;4960264;28;20113;-88
2022/09/01 10:18:29;;;;;;;2.05;1.20;;;;;;;;;;4966035;28;20055;-87
2022/09/01 10:21:01;;;;;;;3.72;1.30;;;;;;;;;;4964846;28;20037;-88
2022/09/01 10:23:33;;;;;;;3.05;1.25;;;;;;;;;;4967186;28;20304;-88
2022/09/01 10:26:06;;;;;;;2.22;1.30;;;;;;;;;;4978633;28;20038;-88
2022/09/01 10:28:33;;;;;;;2.33;1.50;;;;;;;;;;4963553;28;20851;-88
2022/09/01 10:31:01;;;;;;;2.67;1.30;;;;;;;;;;4979281;28;20023;-87
2022/09/01 10:33:27;;;;;;;3.30;1.35;;;;;;;;;;4947664;28;20042;-88
2022/09/01 10:35:53;;;;;;;2.42;1.80;;;;;;;;;;4966375;28;20033;-88
2022/09/01 10:38:22;;;;;;;2.03;1.20;;;;;;;;;;4947620;28;20049;-88
2022/09/01 10:41:05;;;;;;;1.40;0.85;;;;;;;;;;4964319;28;20067;-88
2022/09/01 10:43:48;;;;;;;3.17;1.42;;;;;;;;;;4983132;28;20030;-88
2022/09/01 10:46:40;;;;;;;1.42;1.08;;;;;;;;;;4966286;28;20419;-88
2022/09/01 10:49:17;;;;;;;1.52;1.40;;;;;;;;;;4952339;28;20541;-88
2022/09/01 10:51:44;;;;;;;2.95;1.52;;;;;;;;;;4961122;28;20069;-88
2022/09/01 10:54:30;;;;;;;2.55;1.20;;;;;;;;;;4978461;28;20498;-88
2022/09/01 10:57:08;;;;;;;0.98;0.82;;;;;;;;;;4967338;28;20077;-88
2022/09/01 10:59:34;;;;;;;1.95;1.35;;;;;;;;;;4983910;28;20034;-88
2022/09/01 11:02:15;;;;;;;1.58;1.20;;;;;;;;;;4949481;28;20054;-87
2022/09/01 11:04:41;;;;;;;1.60;1.13;;;;;;;;;;4966179;28;20042;-88
2022/09/01 11:07:19;;;;;;;1.70;1.20;;;;;;;;;;4966677;28;20038;-88
2022/09/01 11:10:04;;;;;;;0.77;0.70;;;;;;;;;;4964512;28;20069;-88
2022/09/01 11:12:36;;;;;;;2.55;1.13;;;;;;;;;;4965566;28;20026;-88
2022/09/01 11:15:04;;;;;;;2.78;1.00;;;;;;;;;;4982753;28;20446;-88
2022/09/01 11:17:35;;;;;;;0.77;0.77;;;;;;;;;;4966873;28;20045;-88
2022/09/01 11:20:14;;;;;;;1.38;0.73;;;;;;;;;;4969150;28;20046;-88
2022/09/01 11:23:07;;;;;;;1.63;1.13;;;;;;;;;;4963950;28;20030;-87
2022/09/01 11:25:44;;;;;;;2.15;1.33;;;;;;;;;;4956453;28;20081;-88
2022/09/01 11:28:18;;;;;;;0.65;0.63;;;;;;;;;;4966301;28;20094;-88
2022/09/01 11:30:54;;;;;;;2.13;1.30;;;;;;;;;;4960699;28;20699;-88
2022/09/01 11:33:38;;;;;;;1.13;0.73;;;;;;;;;;4964137;28;20501;-88
2022/09/01 11:36:25;;;;;;;2.35;1.27;;;;;;;;;;4963892;28;20041;-88
2022/09/01 11:39:10;;;;;;;6.38;1.05;;;;;;;;;;4954407;28;20414;-88
2022/09/01 11:41:39;;;;;;;3.70;1.65;;;;;;;;;;4981085;28;20026;-88
2022/09/01 11:44:11;;;;;;;4.00;0.65;;;;;;;;;;4955461;28;20077;-88
2022/09/01 11:46:41;;;;;;;1.92;0.80;;;;;;;;;;4955463;28;20045;-88
2022/09/01 11:49:16;;;;;;;2.22;0.90;;;;;;;;;;4981095;28;20332;-87
2022/09/01 11:51:47;;;;;;;1.65;1.33;;;;;;;;;;4964242;28;20595;-88
2022/09/01 11:54:13;;;;;;;2.35;1.05;;;;;;;;;;4983033;28;20026;-87
2022/09/01 11:56:40;;;;;;;2.67;1.83;;;;;;;;;;4979996;28;20023;-87
2022/09/01 11:59:06;;;;;;;3.13;1.77;;;;;;;;;;4955185;28;20042;-88
2022/09/01 12:01:34;;;;;;;1.65;1.08;;;;;;;;;;4961737;28;20245;-87
2022/09/01 12:04:17;;;;;;;3.90;0.88;;;;;;;;;;4980954;28;20081;-88
2022/09/01 12:06:50;;;;;;;1.27;1.00;;;;;;;;;;4978369;28;20034;-88
2022/09/01 12:09:16;;;;;;;5.55;1.10;;;;;;;;;;4976731;28;20492;-88
2022/09/01 12:11:42;;;;;;;1.10;1.00;;;;;;;;;;4955509;28;20502;-88
2022/09/01 12:14:10;;;;;;;3.25;0.80;;;;;;;;;;4948678;28;20487;-88
2022/09/01 12:16:38;;;;;;;2.92;1.50;;;;;;;;;;4964674;28;20027;-88
2022/09/01 12:19:05;;;;;;;2.88;1.60;;;;;;;;;;4962203;28;20069;-88
2022/09/01 12:21:42;;;;;;;3.88;1.10;;;;;;;;;;4967798;28;20027;-88
2022/09/01 12:24:14;;;;;;;3.50;1.02;;;;;;;;;;4965847;28;20038;-88
2022/09/01 12:26:41;;;;;;;2.20;0.90;;;;;;;;;;4963349;28;20088;-88
2022/09/01 12:29:07;;;;;;;4.63;1.15;;;;;;;;;;4961056;28;20038;-87
2022/09/01 12:31:33;;;;;;;4.75;1.35;;;;;;;;;;4976243;28;20498;-88
2022/09/01 12:34:03;;;;;;;3.72;1.10;;;;;;;;;;4964377;28;20078;-87
2022/09/01 12:36:34;;;;;;;3.55;0.90;;;;;;;;;;4947514;28;20031;-87
2022/09/01 12:39:20;;;;;;;3.08;1.13;;;;;;;;;;4962216;28;20062;-87
2022/09/01 12:42:07;;;;;;;1.65;0.93;;;;;;;;;;4960027;28;20035;-87
2022/09/01 12:44:42;;;;;;;3.95;1.10;;;;;;;;;;4968416;28;20521;-87
2022/09/01 12:47:10;;;;;;;0.93;0.82;;;;;;;;;;4973499;28;20022;-87
2022/09/01 12:49:36;;;;;;;1.75;0.90;;;;;;;;;;4963005;28;20022;-89
2022/09/01 12:52:09;;;;;;;3.53;0.93;;;;;;;;;;4960167;28;20282;-88
2022/09/01 12:54:35;;;;;;;1.77;1.05;;;;;;;;;;4966393;28;20026;-88
2022/09/01 12:57:02;;;;;;;5.40;1.10;;;;;;;;;;4946662;28;20058;-88
2022/09/01 12:59:28;;;;;;;3.97;0.90;;;;;;;;;;4962488;28;20031;-88
2022/09/01 13:01:54;;;;;;;4.03;1.30;;;;;;;;;;4953933;28;20039;-88
2022/09/01 13:04:23;;;;;;;2.05;0.93;;;;;;;;;;4950234;28;20066;-88
2022/09/01 13:06:50;;;;;;;3.33;1.08;;;;;;;;;;4977689;28;20060;-88
2022/09/01 13:09:16;;;;;;;0.77;0.75;;;;;;;;;;4962356;28;20038;-87
2022/09/01 13:11:46;;;;;;;2.90;1.10;;;;;;;;;;4961639;28;20030;-88
2022/09/01 13:14:12;;;;;;;1.92;1.00;;;;;;;;;;4981760;28;20436;-88
2022/09/01 13:16:38;;;;;;;2.08;0.80;;;;;;;;;;4968526;28;20041;-89
2022/09/01 13:19:05;;;;;;;1.45;0.80;;;;;;;;;;4942674;28;20053;-89
2022/09/01 13:21:33;;;;;;;2.47;0.57;;;;;;;;;;4963692;28;20065;-89
2022/09/01 13:24:00;;;;;;;2.20;0.80;;;;;;;;;;4966182;28;20034;-88
2022/09/01 13:26:28;;;;;;;3.70;0.88;;;;;;;;;;4965975;28;20038;-89
2022/09/01 13:28:54;;;;;;;0.80;0.80;;;;;;;;;;4966521;28;20026;-89
2022/09/01 13:31:20;;;;;;;2.10;0.70;;;;;;;;;;4951399;28;20047;-89
2022/09/01 13:33:46;;;;;;;4.47;1.30;;;;;;;;;;4966604;28;20117;-89
2022/09/01 13:36:12;;;;;;;2.63;0.80;;;;;;;;;;4948752;28;20038;-89
2022/09/01 13:38:39;;;;;;;5.55;0.70;;;;;;;;;;4949945;28;20023;-89
2022/09/01 13:41:05;;;;;;;0.88;0.60;;;;;;;;;;4949152;28;20064;-89
2022/09/01 13:43:31;;;;;;;3.25;1.08;;;;;;;;;;4961626;28;20042;-89
2022/09/01 13:45:57;;;;;;;3.63;0.80;;;;;;;;;;4966154;28;20034;-89
2022/09/01 13:48:23;;;;;;;4.78;0.68;;;;;;;;;;4961906;28;20109;-88
2022/09/01 13:50:53;;;;;;;2.30;0.88;;;;;;;;;;4965784;28;20042;-89
2022/09/01 13:53:20;;;;;;;0.90;0.80;;;;;;;;;;4982425;28;20033;-89
2022/09/01 13:55:46;;;;;;;4.97;0.80;;;;;;;;;;4970003;28;20177;-89
2022/09/01 13:58:13;;;;;;;1.38;0.65;;;;;;;;;;4966370;28;20035;-89
2022/09/01 14:00:41;;;;;;;2.15;1.00;;;;;;;;;;4950411;28;20022;-89
2022/09/01 14:03:09;;;;;;;3.28;0.88;;;;;;;;;;4966081;28;21039;-89
2022/09/01 14:05:40;;;;;;;2.92;1.05;;;;;;;;;;4965207;28;20062;-89
2022/09/01 14:08:06;;;;;;;4.18;0.82;;;;;;;;;;4975117;28;20503;-89
2022/09/01 14:10:33;;;;;;;2.25;0.90;;;;;;;;;;4964119;28;20402;-89
2022/09/01 14:13:00;;;;;;;3.17;0.60;;;;;;;;;;4962843;28;20038;-89
2022/09/01 14:15:26;;;;;;;1.42;1.08;;;;;;;;;;4967935;28;20027;-90
2022/09/01 14:17:55;;;;;;;2.90;0.73;;;;;;;;;;4966215;28;20033;-89
2022/09/01 14:20:22;;;;;;;3.50;0.70;;;;;;;;;;4955034;28;20387;-89
2022/09/01 14:22:49;;;;;;;1.83;0.95;;;;;;;;;;4942220;28;20041;-91
2022/09/01 14:25:16;;;;;;;1.35;0.77;;;;;;;;;;4957448;28;20114;-90
2022/09/01 14:27:43;;;;;;;2.13;1.10;;;;;;;;;;4960463;28;20074;-89
2022/09/01 14:30:10;;;;;;;1.52;0.88;;;;;;;;;;4964505;28;20791;-89
2022/09/01 14:32:37;;;;;;;1.15;1.05;;;;;;;;;;4962224;28;20023;-89
2022/09/01 14:35:03;;;;;;;3.85;1.08;;;;;;;;;;4963945;28;20031;-89
2022/09/01 14:37:29;;;;;;;2.90;0.90;;;;;;;;;;4946727;28;20039;-89
2022/09/01 14:39:56;;;;;;;4.43;1.00;;;;;;;;;;4944564;28;20500;-89
2022/09/01 14:42:24;;;;;;;2.95;0.70;;;;;;;;;;4944812;28;20403;-89
2022/09/01 14:44:51;;;;;;;7.15;0.80;;;;;;;;;;4948901;28;20122;-89
2022/09/01 14:47:17;;;;;;;2.88;0.73;;;;;;;;;;4945034;28;20035;-89
2022/09/01 14:49:43;;;;;;;1.35;0.75;;;;;;;;;;4933594;28;20117;-89
2022/09/01 14:52:09;;;;;;;0.80;0.70;;;;;;;;;;4959306;28;20114;-89
2022/09/01 14:54:36;;;;;;;4.00;0.90;;;;;;;;;;4933029;28;20030;-89
2022/09/01 14:57:06;;;;;;;1.83;0.73;;;;;;;;;;4945143;28;20832;-89
2022/09/01 14:59:32;;;;;;;1.02;0.85;;;;;;;;;;4957334;28;20037;-89
2022/09/01 15:01:59;;;;;;;2.13;0.68;;;;;;;;;;4961156;28;20046;-89